createdAt,value
2022-09-25T00:03:56.537Z,14.80
2022-09-25T00:12:04.911Z,14.80
2022-09-25T00:20:11.205Z,14.90
2022-09-25T00:28:19.078Z,15.00
2022-09-25T00:36:24.393Z,14.70
2022-09-25T00:45:11.817Z,14.80
2022-09-25T00:53:24.160Z,15.00
2022-09-25T01:01:29.895Z,14.80
2022-09-25T01:09:38.354Z,14.70
2022-09-25T01:17:51.124Z,14.90
2022-09-25T01:26:16.662Z,14.80
2022-09-25T01:34:29.079Z,14.80
2022-09-25T01:42:40.898Z,14.80
2022-09-25T01:50:53.218Z,14.80
2022-09-25T01:59:02.574Z,14.80
2022-09-25T02:07:14.287Z,14.90
2022-09-25T02:15:23.113Z,14.20
2022-09-25T02:23:40.343Z,14.50
2022-09-25T02:31:50.123Z,14.70
2022-09-25T02:40:00.887Z,14.60
2022-09-25T02:48:14.354Z,14.40
2022-09-25T02:56:28.715Z,14.60
2022-09-25T03:04:39.051Z,14.50
2022-09-25T03:12:47.007Z,14.40
2022-09-25T03:20:52.751Z,14.10
2022-09-25T03:29:02.552Z,14.10
2022-09-25T03:37:07.909Z,13.90
2022-09-25T03:45:16.074Z,14.20
2022-09-25T03:53:21.321Z,14.10
2022-09-25T04:01:30.246Z,14.00
2022-09-25T04:09:35.636Z,14.10
2022-09-25T04:17:43.458Z,13.80
2022-09-25T04:25:49.279Z,13.70
2022-09-25T04:33:57.248Z,13.60
2022-09-25T04:42:02.474Z,13.90
2022-09-25T04:50:11.392Z,14.30
2022-09-25T04:58:16.699Z,14.50
2022-09-25T05:06:27.098Z,14.50
2022-09-25T05:14:32.416Z,14.90
2022-09-25T05:22:40.462Z,14.40
2022-09-25T05:30:45.848Z,14.80
2022-09-25T05:38:54.194Z,14.60
2022-09-25T05:46:59.480Z,14.10
2022-09-25T05:55:09.778Z,15.00
2022-09-25T06:03:15.132Z,15.30
2022-09-25T06:11:23.047Z,15.50
2022-09-25T06:19:29.381Z,15.20
2022-09-25T06:27:37.293Z,15.40
2022-09-25T06:35:45.231Z,15.50
2022-09-25T06:43:55.354Z,15.70
2022-09-25T06:52:00.758Z,16.00
2022-09-25T07:00:09.734Z,16.40
2022-09-25T07:08:16.429Z,17.30
2022-09-25T07:16:26.063Z,16.90
2022-09-25T07:24:31.455Z,16.80
2022-09-25T07:32:39.388Z,17.90
2022-09-25T07:40:44.807Z,18.70
2022-09-25T07:48:54.379Z,18.60
2022-09-25T07:57:00.681Z,19.00
2022-09-25T08:05:10.094Z,19.10
2022-09-25T08:13:17.910Z,19.50
2022-09-25T08:21:25.821Z,20.10
2022-09-25T08:29:31.171Z,20.00
2022-09-25T08:37:45.214Z,21.10
2022-09-25T08:46:04.647Z,21.00
2022-09-25T08:54:16.443Z,21.30
2022-09-25T09:02:24.903Z,21.90
2022-09-25T09:10:38.951Z,22.90
2022-09-25T09:18:45.819Z,23.00
2022-09-25T09:27:17.511Z,23.90
2022-09-25T09:35:34.259Z,24.70
2022-09-25T09:43:57.833Z,25.30
2022-09-25T09:52:10.763Z,26.30
2022-09-25T10:00:22.901Z,27.90
2022-09-25T10:08:28.456Z,31.00
2022-09-25T10:16:37.004Z,36.90
2022-09-25T10:25:06.762Z,41.90
2022-09-25T10:33:20.584Z,45.00
2022-09-25T10:41:26.555Z,45.50
2022-09-25T10:49:47.239Z,45.00
2022-09-25T10:57:52.772Z,46.00
2022-09-25T11:06:03.936Z,48.70
2022-09-25T11:14:22.664Z,46.40
2022-09-25T11:22:37.784Z,43.30
2022-09-25T11:30:48.948Z,39.50
2022-09-25T11:39:19.844Z,37.80
2022-09-25T11:47:34.220Z,33.80
2022-09-25T11:55:55.709Z,30.50
2022-09-25T12:04:24.616Z,28.60
2022-09-25T12:12:41.652Z,27.50
2022-09-25T12:20:56.125Z,28.00
2022-09-25T12:29:20.067Z,27.80
2022-09-25T12:37:43.741Z,27.10
2022-09-25T12:45:55.657Z,26.50
2022-09-25T12:54:03.646Z,26.10
2022-09-25T13:02:19.655Z,26.10
2022-09-25T13:10:30.315Z,25.70
2022-09-25T13:18:40.032Z,24.80
2022-09-25T13:26:49.393Z,24.10
2022-09-25T13:35:04.739Z,24.00
2022-09-25T13:43:24.927Z,23.80
2022-09-25T13:51:38.665Z,24.10
2022-09-25T13:59:44.064Z,23.60
2022-09-25T14:07:55.656Z,23.70
2022-09-25T14:16:04.910Z,23.90
2022-09-25T14:24:24.873Z,24.00
2022-09-25T14:32:55.015Z,24.70
2022-09-25T14:41:23.618Z,25.10
2022-09-25T14:49:32.080Z,25.50
2022-09-25T14:57:40.171Z,25.60
2022-09-25T15:05:50.590Z,25.50
2022-09-25T15:14:11.785Z,25.10
2022-09-25T15:22:23.524Z,24.60
2022-09-25T15:30:32.035Z,24.70
2022-09-25T15:38:39.133Z,24.80
2022-09-25T15:46:49.745Z,24.70
2022-09-25T15:54:55.081Z,24.20
2022-09-25T16:03:19.502Z,23.90
2022-09-25T16:11:26.783Z,23.20
2022-09-25T16:19:37.964Z,22.80
2022-09-25T16:27:47.965Z,22.40
2022-09-25T16:36:13.118Z,22.20
2022-09-25T16:44:24.578Z,22.40
2022-09-25T16:52:41.346Z,21.90
2022-09-25T17:00:52.347Z,22.30
2022-09-25T17:09:02.490Z,22.10
2022-09-25T17:17:07.793Z,22.60
2022-09-25T17:25:26.682Z,22.10
2022-09-25T17:33:33.005Z,22.20
2022-09-25T17:41:42.111Z,21.90
2022-09-25T17:49:48.674Z,21.90
2022-09-25T17:57:56.872Z,21.80
2022-09-25T18:06:02.493Z,22.10
2022-09-25T18:14:12.378Z,22.10
2022-09-25T18:22:25.427Z,22.20
2022-09-25T18:30:33.686Z,22.20
2022-09-25T18:38:38.951Z,22.20
2022-09-25T18:46:46.947Z,22.20
2022-09-25T18:54:55.391Z,22.20
2022-09-25T19:03:03.486Z,22.20
2022-09-25T19:11:16.195Z,22.10
2022-09-25T19:19:24.197Z,22.10
2022-09-25T19:27:30.555Z,22.00
2022-09-25T19:35:38.474Z,21.90
2022-09-25T19:43:43.783Z,21.80
2022-09-25T19:51:51.680Z,21.80
2022-09-25T19:59:57.182Z,21.60
2022-09-25T20:08:05.358Z,21.50
2022-09-25T20:16:11.819Z,21.40
2022-09-25T20:24:20.301Z,21.40
2022-09-25T20:32:25.672Z,21.40
2022-09-25T20:40:33.659Z,21.40
2022-09-25T20:48:40.608Z,21.10
2022-09-25T20:56:48.562Z,21.10
2022-09-25T21:04:53.854Z,21.10
2022-09-25T21:13:01.776Z,21.10
2022-09-25T21:21:09.418Z,21.10
2022-09-25T21:29:18.597Z,21.10
2022-09-25T21:37:23.886Z,21.10
2022-09-25T21:45:32.006Z,21.20
2022-09-25T21:53:38.482Z,21.10
2022-09-25T22:01:46.459Z,21.10
2022-09-25T22:09:52.105Z,21.00
2022-09-25T22:17:59.966Z,21.00
2022-09-25T22:26:05.904Z,21.00
2022-09-25T22:34:19.290Z,20.10
2022-09-25T22:42:26.690Z,20.10
2022-09-25T22:50:34.522Z,20.40
2022-09-25T22:58:39.848Z,20.50
2022-09-25T23:06:48.344Z,20.60
2022-09-25T23:14:54.153Z,20.50
2022-09-25T23:23:03.686Z,20.60
2022-09-25T23:31:11.306Z,20.60
2022-09-25T23:39:22.043Z,20.70
2022-09-25T23:47:27.333Z,20.60
2022-09-25T23:55:35.389Z,20.30
